createdAt,value
2018-12-29T00:00:49.927Z,36.50
2018-12-29T00:03:26.227Z,43.90
2018-12-29T00:05:59.128Z,33.95
2018-12-29T00:08:30.266Z,34.27
2018-12-29T00:11:01.696Z,30.82
2018-12-29T00:13:33.028Z,27.58
2018-12-29T00:16:04.520Z,25.90
2018-12-29T00:18:35.599Z,27.77
2018-12-29T00:21:07.000Z,28.10
2018-12-29T00:23:38.258Z,26.27
2018-12-29T00:26:10.595Z,24.80
2018-12-29T00:28:41.843Z,26.70
2018-12-29T00:31:13.431Z,39.27
2018-12-29T00:33:44.897Z,78.10
2018-12-29T00:36:16.228Z,105.87
2018-12-29T00:38:47.791Z,111.17
2018-12-29T00:41:19.225Z,87.97
2018-12-29T00:43:50.895Z,120.82
2018-12-29T00:46:22.273Z,120.17
2018-12-29T00:48:53.744Z,125.30
2018-12-29T00:51:24.989Z,109.10
2018-12-29T00:53:56.256Z,131.10
2018-12-29T00:56:27.700Z,54.50
2018-12-29T00:58:59.108Z,33.05
2018-12-29T01:01:30.228Z,29.90
2018-12-29T01:04:01.510Z,31.55
2018-12-29T01:06:44.165Z,57.90
2018-12-29T01:09:15.689Z,32.88
2018-12-29T01:11:46.841Z,28.85
2018-12-29T01:14:18.229Z,28.92
2018-12-29T01:16:49.680Z,33.85
2018-12-29T01:19:21.030Z,27.62
2018-12-29T01:21:52.454Z,41.63
2018-12-29T01:24:23.844Z,36.28
2018-12-29T01:26:55.130Z,33.85
2018-12-29T01:29:26.538Z,40.12
2018-12-29T01:31:57.805Z,45.10
2018-12-29T01:34:29.645Z,61.30
2018-12-29T01:37:01.124Z,58.35
2018-12-29T01:39:32.580Z,77.55
2018-12-29T01:42:03.939Z,57.08
2018-12-29T01:44:35.457Z,43.28
2018-12-29T01:47:07.155Z,38.35
2018-12-29T01:49:38.937Z,76.97
2018-12-29T01:52:10.130Z,87.97
2018-12-29T01:54:41.762Z,32.15
2018-12-29T01:57:12.862Z,32.25
2018-12-29T01:59:44.183Z,30.85
2018-12-29T02:02:15.321Z,33.83
2018-12-29T02:04:46.862Z,36.35
2018-12-29T02:07:24.255Z,35.03
2018-12-29T02:09:55.663Z,36.75
2018-12-29T02:12:26.785Z,37.17
2018-12-29T02:14:58.240Z,35.05
2018-12-29T02:17:29.555Z,36.25
2018-12-29T02:20:01.223Z,34.43
2018-12-29T02:22:32.385Z,36.45
2018-12-29T02:25:03.751Z,34.27
2018-12-29T02:27:35.118Z,34.70
2018-12-29T02:30:06.580Z,32.35
2018-12-29T02:32:37.878Z,58.65
2018-12-29T02:35:09.372Z,53.52
2018-12-29T02:37:40.709Z,55.38
2018-12-29T02:40:11.925Z,52.88
2018-12-29T02:42:44.211Z,97.95
2018-12-29T02:45:15.723Z,73.55
2018-12-29T02:48:05.935Z,44.53
2018-12-29T02:50:37.439Z,48.73
2018-12-29T02:53:08.402Z,60.80
2018-12-29T02:55:39.607Z,57.90
2018-12-29T02:58:10.791Z,43.78
2018-12-29T03:00:42.165Z,40.85
2018-12-29T03:03:13.385Z,38.90
2018-12-29T03:05:44.862Z,37.65
2018-12-29T03:08:16.162Z,38.02
2018-12-29T03:10:52.735Z,33.28
2018-12-29T03:13:23.995Z,33.85
2018-12-29T03:15:55.238Z,91.12
2018-12-29T03:18:26.594Z,91.08
2018-12-29T03:20:58.279Z,57.90
2018-12-29T03:23:29.416Z,46.73
2018-12-29T03:26:00.882Z,45.75
2018-12-29T03:28:32.353Z,88.15
2018-12-29T03:31:03.894Z,98.95
2018-12-29T03:33:35.190Z,54.58
2018-12-29T03:36:06.433Z,37.95
2018-12-29T03:38:37.638Z,43.48
2018-12-29T03:41:09.074Z,93.22
2018-12-29T03:43:40.167Z,88.45
2018-12-29T03:46:11.818Z,90.85
2018-12-29T03:48:43.093Z,77.47
2018-12-29T03:51:14.708Z,44.53
2018-12-29T03:53:46.066Z,42.38
2018-12-29T03:56:17.333Z,37.17
2018-12-29T03:58:48.763Z,35.30
2018-12-29T04:01:20.071Z,49.23
2018-12-29T04:03:51.395Z,38.63
2018-12-29T04:06:22.798Z,40.50
2018-12-29T04:09:29.450Z,54.88
2018-12-29T04:12:01.312Z,50.45
2018-12-29T04:14:32.673Z,33.08
2018-12-29T04:17:04.508Z,46.70
2018-12-29T04:19:35.730Z,38.70
2018-12-29T04:22:07.196Z,30.68
2018-12-29T04:24:38.429Z,36.85
2018-12-29T04:27:09.749Z,44.33
2018-12-29T04:29:40.847Z,33.10
2018-12-29T04:32:12.312Z,30.60
2018-12-29T04:34:43.486Z,31.07
2018-12-29T04:37:14.810Z,37.45
2018-12-29T04:39:46.060Z,49.55
2018-12-29T04:42:17.551Z,51.53
2018-12-29T04:44:49.000Z,39.03
2018-12-29T04:47:20.395Z,42.00
2018-12-29T04:49:51.740Z,51.45
2018-12-29T04:52:23.115Z,39.80
2018-12-29T04:54:54.419Z,37.58
2018-12-29T04:57:25.667Z,43.60
2018-12-29T04:59:56.858Z,49.48
2018-12-29T05:02:28.254Z,59.67
2018-12-29T05:04:59.657Z,51.70
2018-12-29T05:07:30.903Z,35.05
2018-12-29T05:10:02.284Z,60.63
2018-12-29T05:12:33.749Z,53.50
2018-12-29T05:15:05.053Z,44.15
2018-12-29T05:17:36.361Z,44.10
2018-12-29T05:20:07.737Z,59.42
2018-12-29T05:22:39.105Z,88.97
2018-12-29T05:25:10.275Z,96.40
2018-12-29T05:27:41.874Z,113.72
2018-12-29T05:30:12.954Z,91.85
2018-12-29T05:32:44.329Z,73.30
2018-12-29T05:35:34.513Z,102.30
2018-12-29T05:38:17.291Z,40.12
2018-12-29T05:40:49.022Z,33.60
2018-12-29T05:43:20.701Z,28.52
2018-12-29T05:45:51.956Z,38.78
2018-12-29T05:48:23.499Z,34.50
2018-12-29T05:50:55.198Z,32.65
2018-12-29T05:53:26.761Z,31.07
2018-12-29T05:55:58.164Z,30.55
2018-12-29T05:58:29.812Z,29.87
2018-12-29T06:01:01.480Z,29.15
2018-12-29T06:03:32.753Z,29.15
2018-12-29T06:06:04.498Z,27.02
2018-12-29T06:08:35.964Z,29.67
2018-12-29T06:11:07.123Z,29.57
2018-12-29T06:13:38.819Z,39.38
2018-12-29T06:16:10.212Z,61.92
2018-12-29T06:18:41.618Z,66.40
2018-12-29T06:21:13.140Z,64.17
2018-12-29T06:23:44.384Z,53.02
2018-12-29T06:26:15.706Z,78.22
2018-12-29T06:28:47.197Z,63.85
2018-12-29T06:31:18.405Z,55.33
2018-12-29T06:33:50.907Z,86.75
2018-12-29T06:36:22.368Z,58.35
2018-12-29T06:38:53.662Z,32.15
2018-12-29T06:41:25.236Z,30.97
2018-12-29T06:43:56.746Z,35.35
2018-12-29T06:46:34.692Z,35.92
2018-12-29T06:49:01.166Z,33.65
2018-12-29T06:51:32.508Z,38.92
2018-12-29T06:54:03.781Z,40.88
2018-12-29T06:56:35.418Z,34.27
2018-12-29T06:59:06.648Z,34.20
2018-12-29T07:01:37.971Z,36.45
2018-12-29T07:04:10.627Z,33.90
2018-12-29T07:06:42.695Z,35.08
2018-12-29T07:09:26.087Z,34.10
2018-12-29T07:11:57.478Z,28.73
2018-12-29T07:14:28.960Z,23.62
2018-12-29T07:17:00.716Z,31.42
2018-12-29T07:19:31.853Z,41.53
2018-12-29T07:22:03.323Z,27.50
2018-12-29T07:24:35.057Z,26.07
2018-12-29T07:27:06.346Z,23.77
2018-12-29T07:29:38.317Z,35.78
2018-12-29T07:32:10.018Z,29.92
2018-12-29T07:34:41.373Z,32.93
2018-12-29T07:37:12.742Z,26.85
2018-12-29T07:39:43.849Z,35.15
2018-12-29T07:42:15.552Z,26.60
2018-12-29T07:44:47.132Z,30.32
2018-12-29T07:47:18.426Z,29.02
2018-12-29T07:49:49.729Z,34.25
2018-12-29T07:52:21.190Z,33.60
2018-12-29T07:54:52.613Z,35.00
2018-12-29T07:57:24.716Z,33.18
2018-12-29T07:59:55.964Z,42.73
2018-12-29T08:02:27.620Z,50.20
2018-12-29T08:04:58.981Z,50.98
2018-12-29T08:07:30.499Z,41.68
2018-12-29T08:10:01.969Z,34.23
2018-12-29T08:12:33.235Z,39.05
2018-12-29T08:15:04.654Z,33.42
2018-12-29T08:17:36.032Z,35.88
2018-12-29T08:20:07.950Z,39.48
2018-12-29T08:22:39.287Z,39.13
2018-12-29T08:25:10.555Z,58.65
2018-12-29T08:27:42.022Z,44.58
2018-12-29T08:30:13.664Z,44.95
2018-12-29T08:32:44.909Z,44.75
2018-12-29T08:35:16.653Z,68.20
2018-12-29T08:37:48.177Z,77.53
2018-12-29T08:40:19.550Z,77.70
2018-12-29T08:42:50.838Z,67.92
2018-12-29T08:45:22.350Z,97.60
2018-12-29T08:47:54.031Z,74.95
2018-12-29T08:50:25.328Z,79.72
2018-12-29T08:52:56.886Z,161.25
2018-12-29T08:55:28.106Z,78.28
2018-12-29T08:57:59.305Z,50.73
2018-12-29T09:00:30.634Z,48.68
2018-12-29T09:03:01.854Z,72.65
2018-12-29T09:05:33.401Z,53.35
2018-12-29T09:08:05.050Z,57.78
2018-12-29T09:10:36.358Z,43.08
2018-12-29T09:13:07.612Z,51.10
2018-12-29T09:15:39.340Z,46.48
2018-12-29T09:18:10.814Z,44.10
2018-12-29T09:20:42.239Z,47.03
2018-12-29T09:23:13.565Z,45.43
2018-12-29T09:25:45.074Z,37.78
2018-12-29T09:28:16.591Z,40.83
2018-12-29T09:30:47.999Z,39.55
2018-12-29T09:33:19.442Z,42.45
2018-12-29T09:35:50.841Z,53.35
2018-12-29T09:38:22.560Z,48.73
2018-12-29T09:40:53.964Z,54.48
2018-12-29T09:43:25.347Z,47.43
2018-12-29T09:45:56.562Z,38.28
2018-12-29T09:48:39.774Z,38.00
2018-12-29T09:51:11.279Z,35.80
2018-12-29T09:53:42.847Z,44.50
2018-12-29T09:56:13.369Z,41.25
2018-12-29T09:58:44.768Z,41.02
2018-12-29T10:01:16.085Z,47.00
2018-12-29T10:03:47.494Z,44.15
2018-12-29T10:06:18.987Z,42.60
2018-12-29T10:08:51.266Z,40.28
2018-12-29T10:11:25.535Z,51.90
2018-12-29T10:13:57.257Z,51.48
2018-12-29T10:16:28.598Z,49.00
2018-12-29T10:18:59.772Z,56.58
2018-12-29T10:21:31.461Z,47.55
2018-12-29T10:24:02.681Z,48.48
2018-12-29T10:26:34.306Z,39.05
2018-12-29T10:29:05.563Z,45.33
2018-12-29T10:31:36.958Z,43.87
2018-12-29T10:34:08.325Z,51.77
2018-12-29T10:36:39.816Z,51.83
2018-12-29T10:39:10.914Z,50.95
2018-12-29T10:41:42.248Z,56.45
2018-12-29T10:44:13.691Z,56.05
2018-12-29T10:46:45.237Z,50.90
2018-12-29T10:49:17.577Z,49.53
2018-12-29T10:51:49.091Z,52.17
2018-12-29T10:54:20.573Z,53.15
2018-12-29T10:56:51.924Z,47.78
2018-12-29T10:59:23.604Z,47.85
2018-12-29T11:01:55.170Z,47.58
2018-12-29T11:04:26.685Z,49.05
2018-12-29T11:06:58.212Z,36.88
2018-12-29T11:09:30.160Z,44.63
2018-12-29T11:12:01.552Z,39.80
2018-12-29T11:14:32.816Z,42.38
2018-12-29T11:17:04.754Z,47.67
2018-12-29T11:19:36.261Z,37.73
2018-12-29T11:22:07.534Z,34.80
2018-12-29T11:24:38.811Z,42.55
2018-12-29T11:27:10.012Z,48.90
2018-12-29T11:29:52.756Z,41.65
2018-12-29T11:32:24.168Z,48.20
2018-12-29T11:34:55.425Z,36.55
2018-12-29T11:37:27.033Z,38.17
2018-12-29T11:39:58.256Z,36.00
2018-12-29T11:42:29.798Z,39.50
2018-12-29T11:45:01.097Z,41.18
2018-12-29T11:47:32.249Z,35.50
2018-12-29T11:50:03.350Z,30.95
2018-12-29T11:52:34.752Z,33.33
2018-12-29T11:55:06.859Z,28.87
2018-12-29T11:57:38.147Z,32.98
2018-12-29T12:00:10.512Z,31.48
2018-12-29T12:02:41.729Z,36.00
2018-12-29T12:05:13.038Z,31.50
2018-12-29T12:07:44.626Z,33.20
2018-12-29T12:10:15.932Z,39.92
2018-12-29T12:12:58.596Z,37.60
2018-12-29T12:15:29.921Z,34.60
2018-12-29T12:18:01.470Z,34.70
2018-12-29T12:20:44.329Z,64.25
2018-12-29T12:23:15.988Z,31.87
2018-12-29T12:25:47.482Z,33.70
2018-12-29T12:28:19.560Z,33.23
2018-12-29T12:30:50.793Z,31.35
2018-12-29T12:33:22.430Z,31.10
2018-12-29T12:35:53.790Z,35.70
2018-12-29T12:38:24.930Z,37.03
2018-12-29T12:40:56.132Z,38.25
2018-12-29T12:43:27.454Z,35.55
2018-12-29T12:45:59.027Z,35.68
2018-12-29T12:48:30.436Z,32.55
2018-12-29T12:51:13.898Z,35.88
2018-12-29T12:53:45.466Z,34.83
2018-12-29T12:56:16.882Z,38.80
2018-12-29T12:58:48.433Z,33.15
2018-12-29T13:01:32.111Z,39.73
2018-12-29T13:04:03.544Z,38.42
2018-12-29T13:06:35.107Z,40.00
2018-12-29T13:09:08.379Z,34.58
2018-12-29T13:11:40.177Z,42.45
2018-12-29T13:14:11.865Z,45.20
2018-12-29T13:16:43.086Z,42.00
2018-12-29T13:19:14.536Z,48.80
2018-12-29T13:21:46.025Z,43.80
2018-12-29T13:24:17.407Z,43.90
2018-12-29T13:26:48.910Z,40.00
2018-12-29T13:29:20.572Z,38.38
2018-12-29T13:31:51.885Z,36.65
2018-12-29T13:34:23.131Z,37.20
2018-12-29T13:36:55.648Z,48.95
2018-12-29T13:39:26.997Z,52.45
2018-12-29T13:41:58.423Z,56.15
2018-12-29T13:44:29.804Z,44.70
2018-12-29T13:47:01.404Z,45.85
2018-12-29T13:49:33.901Z,45.10
2018-12-29T13:52:05.299Z,47.20
2018-12-29T13:54:36.636Z,48.70
2018-12-29T13:57:08.366Z,61.33
2018-12-29T13:59:39.641Z,47.83
2018-12-29T14:02:23.229Z,51.25
2018-12-29T14:04:54.932Z,53.65
2018-12-29T14:07:26.571Z,53.00
2018-12-29T14:09:58.382Z,42.65
2018-12-29T14:12:29.571Z,37.53
2018-12-29T14:15:00.678Z,38.58
2018-12-29T14:17:31.819Z,46.65
2018-12-29T14:20:07.919Z,40.05
2018-12-29T14:22:39.148Z,40.33
2018-12-29T14:25:10.402Z,43.45
2018-12-29T14:30:22.904Z,35.05
2018-12-29T14:32:54.346Z,63.38
2018-12-29T14:35:25.671Z,66.50
2018-12-29T14:37:57.250Z,57.35
2018-12-29T14:40:28.546Z,52.62
2018-12-29T14:42:59.871Z,51.70
2018-12-29T14:45:31.111Z,48.98
2018-12-29T14:48:02.461Z,50.92
2018-12-29T14:50:33.956Z,54.58
2018-12-29T14:53:05.532Z,45.92
2018-12-29T14:55:36.969Z,47.43
2018-12-29T14:58:08.756Z,53.95
2018-12-29T15:00:40.118Z,50.92
2018-12-29T15:03:11.625Z,54.27
2018-12-29T15:05:42.935Z,47.30
2018-12-29T15:08:14.422Z,45.92
2018-12-29T15:10:45.621Z,53.92
2018-12-29T15:13:17.448Z,50.95
2018-12-29T15:15:48.464Z,51.58
2018-12-29T15:18:20.131Z,49.33
2018-12-29T15:20:51.684Z,54.38
2018-12-29T15:23:23.006Z,54.00
2018-12-29T15:25:54.176Z,57.83
2018-12-29T15:28:25.843Z,53.33
2018-12-29T15:30:57.069Z,51.98
2018-12-29T15:33:28.702Z,58.15
2018-12-29T15:35:59.920Z,57.43
2018-12-29T15:38:31.380Z,54.67
2018-12-29T15:41:03.135Z,59.95
2018-12-29T15:43:34.697Z,60.45
2018-12-29T15:46:05.999Z,61.92
2018-12-29T15:48:37.382Z,59.93
2018-12-29T15:51:08.774Z,58.87
2018-12-29T15:53:40.169Z,62.45
2018-12-29T15:56:11.427Z,62.05
2018-12-29T15:58:42.778Z,69.72
2018-12-29T16:01:14.571Z,62.62
2018-12-29T16:03:45.994Z,65.00
2018-12-29T16:06:17.155Z,76.60
2018-12-29T16:08:48.696Z,66.85
2018-12-29T16:11:26.131Z,74.92
2018-12-29T16:13:53.492Z,69.05
2018-12-29T16:16:24.784Z,67.47
2018-12-29T16:18:58.978Z,65.22
2018-12-29T16:21:29.005Z,75.83
2018-12-29T16:24:00.379Z,71.00
2018-12-29T16:26:31.532Z,70.00
2018-12-29T16:29:05.873Z,85.03
2018-12-29T16:31:38.714Z,99.42
2018-12-29T16:34:11.434Z,84.47
2018-12-29T16:36:42.725Z,76.75
2018-12-29T16:39:14.078Z,73.95
2018-12-29T16:41:45.382Z,76.28
2018-12-29T16:44:16.775Z,74.15
2018-12-29T16:46:48.224Z,80.07
2018-12-29T16:49:19.497Z,75.05
2018-12-29T16:51:50.811Z,69.58
2018-12-29T16:54:22.321Z,76.90
2018-12-29T16:56:54.005Z,75.62
2018-12-29T16:59:25.814Z,65.32
2018-12-29T17:01:57.048Z,63.02
2018-12-29T17:04:28.572Z,56.80
2018-12-29T17:06:59.992Z,61.53
2018-12-29T17:09:31.823Z,67.75
2018-12-29T17:12:03.283Z,63.40
2018-12-29T17:14:35.079Z,64.37
2018-12-29T17:17:06.273Z,61.60
2018-12-29T17:19:37.862Z,67.30
2018-12-29T17:22:08.999Z,60.95
2018-12-29T17:24:40.755Z,66.97
2018-12-29T17:27:12.433Z,64.25
2018-12-29T17:29:43.941Z,64.22
2018-12-29T17:32:15.429Z,68.83
2018-12-29T17:34:46.954Z,68.72
2018-12-29T17:37:18.354Z,65.22
2018-12-29T17:39:49.731Z,69.92
2018-12-29T17:42:23.199Z,64.55
2018-12-29T17:44:54.690Z,72.78
2018-12-29T17:47:26.100Z,67.03
2018-12-29T17:49:57.292Z,71.17
2018-12-29T17:52:30.026Z,67.32
2018-12-29T17:55:01.825Z,63.73
2018-12-29T17:57:33.156Z,65.50
2018-12-29T18:00:04.600Z,67.47
2018-12-29T18:02:35.954Z,64.12
2018-12-29T18:05:07.354Z,68.95
2018-12-29T18:07:38.847Z,71.53
2018-12-29T18:10:10.061Z,68.02
2018-12-29T18:12:41.640Z,69.58
2018-12-29T18:15:13.078Z,71.22
2018-12-29T18:17:45.043Z,71.33
2018-12-29T18:20:16.783Z,80.70
2018-12-29T18:23:07.069Z,71.20
2018-12-29T18:25:38.436Z,75.67
2018-12-29T18:28:09.827Z,70.78
2018-12-29T18:30:41.175Z,71.60
2018-12-29T18:33:12.711Z,74.25
2018-12-29T18:35:44.074Z,70.10
2018-12-29T18:38:16.255Z,66.75
2018-12-29T18:40:48.753Z,70.70
2018-12-29T18:43:20.122Z,65.47
2018-12-29T18:45:51.701Z,70.65
2018-12-29T18:48:22.981Z,99.07
2018-12-29T18:50:54.723Z,82.72
2018-12-29T18:53:26.392Z,71.70
2018-12-29T18:55:57.544Z,70.28
2018-12-29T18:58:29.028Z,68.92
2018-12-29T19:01:00.335Z,66.97
2018-12-29T19:03:31.613Z,60.38
2018-12-29T19:06:03.329Z,68.20
2018-12-29T19:08:34.747Z,68.67
2018-12-29T19:11:06.346Z,65.67
2018-12-29T19:13:37.918Z,60.28
2018-12-29T19:16:10.021Z,61.42
2018-12-29T19:18:41.994Z,59.38
2018-12-29T19:21:14.317Z,64.58
2018-12-29T19:23:45.989Z,56.37
2018-12-29T19:26:17.788Z,66.82
2018-12-29T19:28:53.370Z,72.50
2018-12-29T19:31:25.502Z,63.80
2018-12-29T19:33:58.203Z,64.25
2018-12-29T19:36:30.372Z,63.87
2018-12-29T19:39:02.346Z,63.85
2018-12-29T19:41:34.867Z,71.15
2018-12-29T19:44:06.226Z,68.47
2018-12-29T19:46:37.939Z,70.78
2018-12-29T19:49:09.369Z,72.35
2018-12-29T19:51:40.801Z,67.53
2018-12-29T19:54:12.288Z,72.17
2018-12-29T19:56:43.940Z,69.37
2018-12-29T19:59:15.582Z,73.10
2018-12-29T20:01:46.921Z,73.05
2018-12-29T20:04:18.588Z,66.30
2018-12-29T20:06:50.330Z,74.62
2018-12-29T20:09:21.557Z,66.45
2018-12-29T20:11:52.877Z,68.22
2018-12-29T20:14:24.365Z,63.23
2018-12-29T20:16:55.608Z,137.30
2018-12-29T20:19:26.885Z,115.80
2018-12-29T20:21:58.353Z,105.92
2018-12-29T20:24:29.859Z,89.70
2018-12-29T20:27:01.339Z,76.40
2018-12-29T20:29:32.888Z,64.10
2018-12-29T20:32:04.434Z,62.05
2018-12-29T20:34:36.384Z,63.30
2018-12-29T20:37:07.654Z,52.10
2018-12-29T20:39:38.930Z,51.23
2018-12-29T20:42:10.193Z,65.37
2018-12-29T20:44:41.585Z,60.50
2018-12-29T20:47:12.683Z,60.45
2018-12-29T20:49:44.018Z,60.92
2018-12-29T20:52:15.544Z,379.02
2018-12-29T20:54:46.984Z,591.77
2018-12-29T20:57:18.723Z,108.87
2018-12-29T20:59:50.016Z,70.22
2018-12-29T21:02:21.711Z,67.47
2018-12-29T21:04:53.046Z,88.17
2018-12-29T21:07:24.312Z,70.92
2018-12-29T21:09:55.750Z,72.85
2018-12-29T21:12:27.351Z,69.35
2018-12-29T21:14:58.734Z,70.72
2018-12-29T21:17:30.153Z,77.27
2018-12-29T21:20:01.787Z,136.57
2018-12-29T21:22:33.070Z,83.40
2018-12-29T21:25:04.430Z,95.97
2018-12-29T21:27:35.848Z,98.10
2018-12-29T21:30:07.640Z,104.15
2018-12-29T21:32:39.237Z,122.95
2018-12-29T21:35:10.494Z,113.80
2018-12-29T21:37:41.968Z,132.15
2018-12-29T21:40:13.486Z,164.80
2018-12-29T21:42:45.342Z,151.20
2018-12-29T21:45:16.589Z,152.68
2018-12-29T21:47:48.044Z,153.38
2018-12-29T21:50:25.421Z,187.60
2018-12-29T21:52:52.565Z,214.88
2018-12-29T21:55:35.632Z,165.88
2018-12-29T21:58:07.144Z,139.50
2018-12-29T22:00:38.561Z,130.95
2018-12-29T22:03:10.124Z,118.60
2018-12-29T22:05:41.411Z,111.62
2018-12-29T22:08:12.694Z,102.70
2018-12-29T22:10:43.855Z,100.18
2018-12-29T22:13:15.012Z,91.40
2018-12-29T22:15:46.418Z,94.03
2018-12-29T22:18:17.586Z,83.47
2018-12-29T22:20:48.893Z,91.63
2018-12-29T22:23:20.507Z,81.78
2018-12-29T22:25:52.105Z,83.97
2018-12-29T22:28:23.188Z,74.60
2018-12-29T22:30:54.707Z,72.82
2018-12-29T22:33:25.936Z,74.42
2018-12-29T22:35:57.222Z,62.38
2018-12-29T22:38:28.354Z,72.03
2018-12-29T22:40:59.666Z,67.70
2018-12-29T22:43:30.795Z,80.35
2018-12-29T22:46:02.264Z,82.92
2018-12-29T22:51:14.247Z,82.27
2018-12-29T22:53:45.871Z,77.37
2018-12-29T22:56:17.301Z,79.32
2018-12-29T22:58:49.017Z,84.07
2018-12-29T23:01:20.895Z,89.35
2018-12-29T23:03:52.338Z,88.03
2018-12-29T23:06:23.449Z,90.72
2018-12-29T23:08:55.010Z,100.45
2018-12-29T23:11:26.474Z,99.10
2018-12-29T23:13:57.741Z,103.00
2018-12-29T23:16:28.983Z,99.25
2018-12-29T23:22:28.275Z,131.50
2018-12-29T23:25:52.655Z,141.47
2018-12-29T23:28:27.015Z,150.60
2018-12-29T23:30:58.312Z,157.05
2018-12-29T23:33:29.711Z,259.10
2018-12-29T23:36:00.993Z,207.35
2018-12-29T23:38:32.494Z,232.00
2018-12-29T23:41:04.025Z,248.40
2018-12-29T23:43:35.235Z,237.10
2018-12-29T23:46:06.259Z,212.68
2018-12-29T23:48:37.601Z,232.05
2018-12-29T23:51:09.197Z,229.63
2018-12-29T23:53:40.602Z,227.93
2018-12-29T23:56:12.376Z,209.27
2018-12-29T23:58:44.037Z,203.30
